createdAt,value
2023-03-17T00:01:51.670Z,13.43
2023-03-17T00:06:56.894Z,18.63
2023-03-17T00:12:00.360Z,14.77
2023-03-17T00:17:03.251Z,20.52
2023-03-17T00:22:13.960Z,20.38
2023-03-17T00:27:18.156Z,22.60
2023-03-17T00:32:22.835Z,15.85
2023-03-17T00:37:27.577Z,26.75
2023-03-17T00:47:34.551Z,36.30
2023-03-17T00:52:37.331Z,40.10
2023-03-17T00:57:41.463Z,38.35
2023-03-17T01:07:53.113Z,48.35
2023-03-17T01:12:58.222Z,53.90
2023-03-17T01:18:03.042Z,46.38
2023-03-17T01:23:06.009Z,64.95
2023-03-17T01:28:14.513Z,46.50
2023-03-17T01:33:17.414Z,46.95
2023-03-17T01:38:20.354Z,48.50
2023-03-17T01:43:27.941Z,50.92
2023-03-17T01:48:35.362Z,48.45
2023-03-17T01:53:39.947Z,48.03
2023-03-17T01:58:45.801Z,54.35
2023-03-17T02:03:48.950Z,46.17
2023-03-17T02:08:52.396Z,40.42
2023-03-17T02:13:55.302Z,32.13
2023-03-17T02:18:58.238Z,37.65
2023-03-17T02:24:05.606Z,40.30
2023-03-17T02:29:08.604Z,37.33
2023-03-17T02:34:12.070Z,53.20
2023-03-17T02:39:14.870Z,27.95
2023-03-17T02:44:18.287Z,39.72
2023-03-17T02:49:42.134Z,30.85
2023-03-17T02:54:44.985Z,40.65
2023-03-17T02:59:47.840Z,37.45
2023-03-17T03:04:51.002Z,24.35
2023-03-17T03:09:53.832Z,26.38
2023-03-17T03:14:56.694Z,36.10
2023-03-17T03:20:00.260Z,32.65
2023-03-17T03:25:03.277Z,20.13
2023-03-17T03:30:08.233Z,33.22
2023-03-17T03:35:11.821Z,20.17
2023-03-17T03:40:14.942Z,19.45
2023-03-17T03:45:18.523Z,19.50
2023-03-17T03:50:22.112Z,23.60
2023-03-17T03:55:25.237Z,21.75
2023-03-17T04:00:28.358Z,20.05
2023-03-17T04:05:31.542Z,25.15
2023-03-17T04:10:34.800Z,21.95
2023-03-17T04:15:37.819Z,31.30
2023-03-17T04:20:40.939Z,27.73
2023-03-17T04:25:43.915Z,16.40
2023-03-17T04:30:47.238Z,24.48
2023-03-17T04:35:50.072Z,14.20
2023-03-17T04:40:53.141Z,15.80
2023-03-17T04:45:56.383Z,18.55
2023-03-17T04:50:59.696Z,23.23
2023-03-17T04:56:02.556Z,18.20
2023-03-17T05:01:05.705Z,13.52
2023-03-17T05:06:27.070Z,14.77
2023-03-17T05:11:30.007Z,8.90
2023-03-17T05:16:33.072Z,14.48
2023-03-17T05:21:35.902Z,8.68
2023-03-17T05:26:39.073Z,11.65
2023-03-17T05:32:00.189Z,12.50
2023-03-17T05:37:03.646Z,19.33
2023-03-17T05:42:07.016Z,13.98
2023-03-17T05:47:09.896Z,13.60
2023-03-17T05:52:13.096Z,15.40
2023-03-17T05:57:16.501Z,11.10
2023-03-17T06:02:19.494Z,10.27
2023-03-17T06:07:22.885Z,10.63
2023-03-17T06:12:26.043Z,9.57
2023-03-17T06:17:28.922Z,14.93
2023-03-17T06:22:32.140Z,14.77
2023-03-17T06:27:35.106Z,13.90
2023-03-17T06:32:38.209Z,11.68
2023-03-17T06:37:41.806Z,14.68
2023-03-17T06:42:44.709Z,12.85
2023-03-17T06:47:47.574Z,13.40
2023-03-17T06:52:51.006Z,13.40
2023-03-17T06:58:13.426Z,15.02
2023-03-17T07:03:17.149Z,15.05
2023-03-17T07:08:20.233Z,16.55
2023-03-17T07:13:23.760Z,12.90
2023-03-17T07:18:27.158Z,16.00
2023-03-17T07:23:30.871Z,16.30
2023-03-17T07:28:34.236Z,16.63
2023-03-17T07:33:57.690Z,18.63
2023-03-17T07:39:01.716Z,16.80
2023-03-17T07:44:04.857Z,19.02
2023-03-17T07:49:07.880Z,15.27
2023-03-17T07:54:14.907Z,17.75
2023-03-17T07:59:18.523Z,22.52
2023-03-17T08:04:21.346Z,21.45
2023-03-17T08:09:24.303Z,20.48
2023-03-17T08:14:27.259Z,20.98
2023-03-17T08:19:48.625Z,20.35
2023-03-17T08:24:52.391Z,22.02
2023-03-17T08:34:59.003Z,20.00
2023-03-17T08:40:01.840Z,23.42
2023-03-17T08:45:06.988Z,19.38
2023-03-17T08:50:15.795Z,18.30
2023-03-17T08:55:19.733Z,17.25
2023-03-17T09:00:23.030Z,21.83
2023-03-17T09:05:26.922Z,20.75
2023-03-17T09:10:30.638Z,17.95
2023-03-17T09:20:40.900Z,22.65
2023-03-17T09:25:43.814Z,27.48
2023-03-17T09:30:47.048Z,30.05
2023-03-17T09:35:52.511Z,29.48
2023-03-17T09:41:23.686Z,29.75
2023-03-17T09:46:45.225Z,30.65
2023-03-17T09:51:49.943Z,24.70
2023-03-17T09:57:02.597Z,28.88
2023-03-17T10:02:27.277Z,31.92
2023-03-17T10:08:19.055Z,36.40
2023-03-17T10:13:48.631Z,29.90
2023-03-17T10:19:35.569Z,33.60
2023-03-17T10:24:43.396Z,24.35
2023-03-17T10:29:48.523Z,33.05
2023-03-17T10:34:52.116Z,35.38
2023-03-17T10:39:57.516Z,32.50
2023-03-17T10:45:13.459Z,32.38
2023-03-17T10:50:16.690Z,36.75
2023-03-17T10:55:22.484Z,37.20
2023-03-17T11:05:33.495Z,35.63
2023-03-17T11:10:57.169Z,31.55
2023-03-17T11:16:22.427Z,26.15
2023-03-17T11:21:48.767Z,28.60
2023-03-17T11:27:16.514Z,32.08
2023-03-17T11:32:45.833Z,28.67
2023-03-17T11:38:04.415Z,34.13
2023-03-17T11:43:16.257Z,29.00
2023-03-17T11:48:37.787Z,29.25
2023-03-17T11:54:14.510Z,30.00
2023-03-17T11:59:38.513Z,27.75
2023-03-17T12:05:10.827Z,30.02
2023-03-17T12:10:22.727Z,29.80
2023-03-17T12:15:36.852Z,53.05
2023-03-17T12:20:49.626Z,40.17
2023-03-17T12:26:00.379Z,39.10
2023-03-17T12:36:15.216Z,48.40
2023-03-17T12:41:33.674Z,34.42
2023-03-17T12:46:39.752Z,42.03
2023-03-17T12:52:10.518Z,39.65
2023-03-17T12:57:20.909Z,30.17
2023-03-17T13:02:29.827Z,28.73
2023-03-17T13:08:00.037Z,32.53
2023-03-17T13:13:21.913Z,39.17
2023-03-17T13:18:47.444Z,37.65
2023-03-17T13:24:23.026Z,35.63
2023-03-17T13:29:46.338Z,35.17
2023-03-17T13:34:56.355Z,38.13
2023-03-17T13:40:10.797Z,30.70
2023-03-17T13:45:24.680Z,37.58
2023-03-17T13:50:46.920Z,34.78
2023-03-17T13:56:28.097Z,31.40
2023-03-17T14:01:59.900Z,49.97
2023-03-17T14:07:11.587Z,37.92
2023-03-17T14:12:39.767Z,39.40
2023-03-17T14:17:50.768Z,43.20
2023-03-17T14:23:01.499Z,45.78
2023-03-17T14:28:10.020Z,35.05
2023-03-17T14:33:31.544Z,48.65
2023-03-17T14:38:37.910Z,59.25
2023-03-17T14:43:41.944Z,64.53
2023-03-17T14:53:52.627Z,47.83
2023-03-17T14:59:04.380Z,39.30
2023-03-17T15:04:17.573Z,46.63
2023-03-17T15:09:27.292Z,50.60
2023-03-17T15:14:39.065Z,57.78
2023-03-17T15:19:49.203Z,56.60
2023-03-17T15:25:00.242Z,51.80
2023-03-17T15:30:03.597Z,37.85
2023-03-17T15:35:08.153Z,44.42
2023-03-17T15:40:11.911Z,46.20
2023-03-17T15:45:17.247Z,43.25
2023-03-17T15:50:28.721Z,34.33
2023-03-17T15:55:31.963Z,34.30
2023-03-17T16:00:35.155Z,42.22
2023-03-17T16:05:38.029Z,48.47
2023-03-17T16:10:41.507Z,48.13
2023-03-17T16:15:53.126Z,44.75
2023-03-17T16:20:57.247Z,40.20
2023-03-17T16:26:13.702Z,40.20
2023-03-17T16:31:19.949Z,41.30
2023-03-17T16:36:24.582Z,53.00
2023-03-17T16:41:28.567Z,38.53
2023-03-17T16:46:35.500Z,50.20
2023-03-17T16:51:38.613Z,44.80
2023-03-17T16:56:42.448Z,39.10
2023-03-17T17:01:45.445Z,27.13
2023-03-17T17:06:48.404Z,40.25
2023-03-17T17:12:10.456Z,31.98
2023-03-17T17:17:13.895Z,30.95
2023-03-17T17:22:16.953Z,40.25
2023-03-17T17:27:19.784Z,27.15
2023-03-17T17:32:24.463Z,26.08
2023-03-17T17:37:27.678Z,31.33
2023-03-17T17:42:30.888Z,22.27
2023-03-17T17:47:33.817Z,29.83
2023-03-17T17:52:36.804Z,23.33
2023-03-17T17:57:39.757Z,28.08
2023-03-17T18:02:43.119Z,25.38
2023-03-17T18:07:46.009Z,28.65
2023-03-17T18:13:07.874Z,21.55
2023-03-17T18:18:11.152Z,21.00
2023-03-17T18:23:16.200Z,20.27
2023-03-17T18:28:19.047Z,21.77
2023-03-17T18:33:22.781Z,13.38
2023-03-17T18:38:25.779Z,10.20
2023-03-17T18:43:28.789Z,16.92
2023-03-17T18:48:31.716Z,13.32
2023-03-17T18:53:53.336Z,11.07
2023-03-17T18:58:57.485Z,10.30
2023-03-17T19:04:00.494Z,10.15
2023-03-17T19:09:03.990Z,9.15
2023-03-17T19:14:08.710Z,6.55
2023-03-17T19:19:11.622Z,7.13
2023-03-17T19:24:15.177Z,7.97
2023-03-17T19:29:18.050Z,8.52
2023-03-17T19:34:21.475Z,6.40
2023-03-17T19:39:24.450Z,5.70
2023-03-17T19:44:27.479Z,6.32
2023-03-17T19:49:30.315Z,5.15
2023-03-17T19:54:33.427Z,7.70
2023-03-17T19:59:36.236Z,4.35
2023-03-17T20:04:39.134Z,7.10
2023-03-17T20:09:42.524Z,6.13
2023-03-17T20:14:45.393Z,3.50
2023-03-17T20:19:48.335Z,5.30
2023-03-17T20:24:51.383Z,4.60
2023-03-17T20:29:54.873Z,3.40
2023-03-17T20:34:58.512Z,3.70
2023-03-17T20:40:03.220Z,5.57
2023-03-17T20:45:07.681Z,3.97
2023-03-17T20:50:31.165Z,4.88
2023-03-17T20:55:34.196Z,4.43
2023-03-17T21:00:37.324Z,5.68
2023-03-17T21:05:40.818Z,4.47
2023-03-17T21:10:43.797Z,4.45
2023-03-17T21:15:47.623Z,4.40
2023-03-17T21:20:51.075Z,3.75
2023-03-17T21:25:57.088Z,4.22
2023-03-17T21:31:02.719Z,4.50
2023-03-17T21:36:07.052Z,4.88
2023-03-17T21:41:34.262Z,4.30
2023-03-17T21:46:37.446Z,4.32
2023-03-17T21:51:40.818Z,6.18
2023-03-17T21:56:44.744Z,4.95
2023-03-17T22:01:48.020Z,5.30
2023-03-17T22:06:52.288Z,5.28
2023-03-17T22:11:55.306Z,6.10
2023-03-17T22:16:58.226Z,7.05
2023-03-17T22:22:02.131Z,5.97
2023-03-17T22:27:06.109Z,9.05
2023-03-17T22:32:09.279Z,7.93
2023-03-17T22:37:13.373Z,6.75
2023-03-17T22:42:16.773Z,5.57
2023-03-17T22:47:19.640Z,7.15
2023-03-17T22:52:22.524Z,7.35
2023-03-17T22:57:25.559Z,4.38
2023-03-17T23:02:28.417Z,4.00
2023-03-17T23:07:35.557Z,4.43
2023-03-17T23:12:44.266Z,4.25
2023-03-17T23:17:47.669Z,4.07
2023-03-17T23:22:50.705Z,3.78
2023-03-17T23:27:53.684Z,4.95
2023-03-17T23:32:56.658Z,3.15
2023-03-17T23:38:00.458Z,3.42
2023-03-17T23:43:21.981Z,5.85
2023-03-17T23:48:24.745Z,4.20
2023-03-17T23:53:28.626Z,4.95
2023-03-17T23:58:32.140Z,6.15
